sensor_id;sensor_type;location;lat;lon;timestamp;P1;durP1;ratioP1;P2;durP2;ratioP2
19004;SDS011;9635;52.078;8.648;2023-05-15T00:04:01;14.15;;;12.73;;
19004;SDS011;9635;52.078;8.648;2023-05-15T00:09:05;13.77;;;12.05;;
19004;SDS011;9635;52.078;8.648;2023-05-15T00:14:09;15.15;;;13.60;;
19004;SDS011;9635;52.078;8.648;2023-05-15T00:19:12;16.88;;;12.30;;
19004;SDS011;9635;52.078;8.648;2023-05-15T00:24:16;13.40;;;11.52;;
19004;SDS011;9635;52.078;8.648;2023-05-15T00:29:19;14.55;;;11.02;;
19004;SDS011;9635;52.078;8.648;2023-05-15T00:34:23;13.70;;;12.25;;
19004;SDS011;9635;52.078;8.648;2023-05-15T00:39:27;14.48;;;12.82;;
19004;SDS011;9635;52.078;8.648;2023-05-15T00:44:30;14.40;;;12.88;;
19004;SDS011;9635;52.078;8.648;2023-05-15T00:49:33;19.52;;;14.82;;
19004;SDS011;9635;52.078;8.648;2023-05-15T00:54:38;15.63;;;13.40;;
19004;SDS011;9635;52.078;8.648;2023-05-15T00:59:42;12.38;;;11.05;;
19004;SDS011;9635;52.078;8.648;2023-05-15T01:04:48;12.55;;;11.35;;
19004;SDS011;9635;52.078;8.648;2023-05-15T01:09:52;12.20;;;10.93;;
19004;SDS011;9635;52.078;8.648;2023-05-15T01:14:56;19.48;;;12.02;;
19004;SDS011;9635;52.078;8.648;2023-05-15T01:19:59;16.00;;;12.73;;
19004;SDS011;9635;52.078;8.648;2023-05-15T01:31:01;12.60;;;11.40;;
19004;SDS011;9635;52.078;8.648;2023-05-15T01:36:11;16.27;;;13.90;;
19004;SDS011;9635;52.078;8.648;2023-05-15T01:41:25;15.48;;;13.88;;
19004;SDS011;9635;52.078;8.648;2023-05-15T01:46:32;15.57;;;12.52;;
19004;SDS011;9635;52.078;8.648;2023-05-15T01:51:39;13.98;;;12.48;;
19004;SDS011;9635;52.078;8.648;2023-05-15T01:56:45;15.02;;;13.45;;
19004;SDS011;9635;52.078;8.648;2023-05-15T02:01:50;16.13;;;12.50;;
19004;SDS011;9635;52.078;8.648;2023-05-15T02:06:54;13.20;;;11.40;;
19004;SDS011;9635;52.078;8.648;2023-05-15T02:11:57;12.20;;;11.00;;
19004;SDS011;9635;52.078;8.648;2023-05-15T02:17:04;13.95;;;11.68;;
19004;SDS011;9635;52.078;8.648;2023-05-15T02:22:07;13.98;;;12.48;;
19004;SDS011;9635;52.078;8.648;2023-05-15T02:27:11;82.88;;;19.77;;
19004;SDS011;9635;52.078;8.648;2023-05-15T02:32:21;15.38;;;13.77;;
19004;SDS011;9635;52.078;8.648;2023-05-15T02:37:30;23.02;;;15.25;;
19004;SDS011;9635;52.078;8.648;2023-05-15T02:42:36;15.70;;;13.93;;
19004;SDS011;9635;52.078;8.648;2023-05-15T02:47:41;13.68;;;11.75;;
19004;SDS011;9635;52.078;8.648;2023-05-15T02:52:44;20.92;;;11.30;;
19004;SDS011;9635;52.078;8.648;2023-05-15T02:57:48;11.68;;;10.48;;
19004;SDS011;9635;52.078;8.648;2023-05-15T03:02:52;11.13;;;10.13;;
19004;SDS011;9635;52.078;8.648;2023-05-15T03:07:55;11.40;;;10.20;;
19004;SDS011;9635;52.078;8.648;2023-05-15T03:12:58;10.50;;;9.43;;
19004;SDS011;9635;52.078;8.648;2023-05-15T03:18:03;11.73;;;10.57;;
19004;SDS011;9635;52.078;8.648;2023-05-15T03:23:05;13.45;;;12.10;;
19004;SDS011;9635;52.078;8.648;2023-05-15T03:28:08;12.90;;;11.40;;
19004;SDS011;9635;52.078;8.648;2023-05-15T03:33:13;16.17;;;12.50;;
19004;SDS011;9635;52.078;8.648;2023-05-15T03:38:16;14.60;;;12.65;;
19004;SDS011;9635;52.078;8.648;2023-05-15T03:43:19;17.90;;;12.77;;
19004;SDS011;9635;52.078;8.648;2023-05-15T03:48:23;14.95;;;11.55;;
19004;SDS011;9635;52.078;8.648;2023-05-15T03:53:26;13.00;;;11.57;;
19004;SDS011;9635;52.078;8.648;2023-05-15T03:58:29;14.68;;;12.68;;
19004;SDS011;9635;52.078;8.648;2023-05-15T04:03:33;17.60;;;14.32;;
19004;SDS011;9635;52.078;8.648;2023-05-15T04:08:36;17.75;;;12.25;;
19004;SDS011;9635;52.078;8.648;2023-05-15T04:13:41;13.65;;;12.25;;
19004;SDS011;9635;52.078;8.648;2023-05-15T04:18:45;15.02;;;13.43;;
19004;SDS011;9635;52.078;8.648;2023-05-15T04:23:48;16.17;;;12.70;;
19004;SDS011;9635;52.078;8.648;2023-05-15T04:28:51;18.45;;;14.55;;
19004;SDS011;9635;52.078;8.648;2023-05-15T04:34:06;14.40;;;12.55;;
19004;SDS011;9635;52.078;8.648;2023-05-15T04:39:09;15.38;;;12.70;;
19004;SDS011;9635;52.078;8.648;2023-05-15T04:44:12;15.85;;;12.88;;
19004;SDS011;9635;52.078;8.648;2023-05-15T04:49:16;14.50;;;12.68;;
19004;SDS011;9635;52.078;8.648;2023-05-15T04:54:19;15.00;;;12.77;;
19004;SDS011;9635;52.078;8.648;2023-05-15T04:59:22;16.77;;;12.50;;
19004;SDS011;9635;52.078;8.648;2023-05-15T05:04:28;14.52;;;13.02;;
19004;SDS011;9635;52.078;8.648;2023-05-15T05:09:31;18.77;;;14.50;;
19004;SDS011;9635;52.078;8.648;2023-05-15T05:14:34;19.52;;;17.20;;
19004;SDS011;9635;52.078;8.648;2023-05-15T05:19:38;17.20;;;15.18;;
19004;SDS011;9635;52.078;8.648;2023-05-15T05:24:42;23.08;;;17.13;;
19004;SDS011;9635;52.078;8.648;2023-05-15T05:29:44;21.17;;;17.02;;
19004;SDS011;9635;52.078;8.648;2023-05-15T05:34:48;22.83;;;17.88;;
19004;SDS011;9635;52.078;8.648;2023-05-15T05:39:51;20.88;;;17.88;;
19004;SDS011;9635;52.078;8.648;2023-05-15T05:44:55;20.83;;;16.30;;
19004;SDS011;9635;52.078;8.648;2023-05-15T05:49:59;21.90;;;18.08;;
19004;SDS011;9635;52.078;8.648;2023-05-15T05:55:02;17.63;;;14.52;;
19004;SDS011;9635;52.078;8.648;2023-05-15T06:00:05;11.40;;;9.13;;
19004;SDS011;9635;52.078;8.648;2023-05-15T06:05:13;13.18;;;11.80;;
19004;SDS011;9635;52.078;8.648;2023-05-15T06:10:15;10.35;;;9.35;;
19004;SDS011;9635;52.078;8.648;2023-05-15T06:15:18;19.80;;;10.07;;
19004;SDS011;9635;52.078;8.648;2023-05-15T06:20:23;13.27;;;11.75;;
19004;SDS011;9635;52.078;8.648;2023-05-15T06:25:26;18.75;;;11.05;;
19004;SDS011;9635;52.078;8.648;2023-05-15T06:30:29;14.98;;;13.48;;
19004;SDS011;9635;52.078;8.648;2023-05-15T06:35:33;19.50;;;10.90;;
19004;SDS011;9635;52.078;8.648;2023-05-15T06:40:36;16.90;;;14.57;;
19004;SDS011;9635;52.078;8.648;2023-05-15T06:45:38;16.42;;;14.05;;
19004;SDS011;9635;52.078;8.648;2023-05-15T06:50:42;17.38;;;14.70;;
19004;SDS011;9635;52.078;8.648;2023-05-15T06:55:45;18.23;;;14.77;;
19004;SDS011;9635;52.078;8.648;2023-05-15T07:00:48;17.58;;;15.55;;
19004;SDS011;9635;52.078;8.648;2023-05-15T07:05:54;19.15;;;16.60;;
19004;SDS011;9635;52.078;8.648;2023-05-15T07:10:57;15.77;;;12.95;;
19004;SDS011;9635;52.078;8.648;2023-05-15T07:16:00;15.98;;;14.38;;
19004;SDS011;9635;52.078;8.648;2023-05-15T07:21:05;16.58;;;14.85;;
19004;SDS011;9635;52.078;8.648;2023-05-15T07:26:08;21.13;;;15.70;;
19004;SDS011;9635;52.078;8.648;2023-05-15T07:31:20;18.70;;;15.77;;
19004;SDS011;9635;52.078;8.648;2023-05-15T07:36:24;17.75;;;14.02;;
19004;SDS011;9635;52.078;8.648;2023-05-15T07:41:27;16.63;;;15.05;;
19004;SDS011;9635;52.078;8.648;2023-05-15T07:46:31;17.27;;;15.10;;
19004;SDS011;9635;52.078;8.648;2023-05-15T07:51:35;15.88;;;14.20;;
19004;SDS011;9635;52.078;8.648;2023-05-15T07:56:38;18.33;;;14.45;;
19004;SDS011;9635;52.078;8.648;2023-05-15T08:01:41;15.95;;;13.70;;
19004;SDS011;9635;52.078;8.648;2023-05-15T08:06:45;15.00;;;13.50;;
19004;SDS011;9635;52.078;8.648;2023-05-15T08:11:48;13.13;;;11.73;;
19004;SDS011;9635;52.078;8.648;2023-05-15T08:16:51;14.02;;;12.52;;
19004;SDS011;9635;52.078;8.648;2023-05-15T08:21:55;13.65;;;12.18;;
19004;SDS011;9635;52.078;8.648;2023-05-15T08:26:58;13.73;;;12.30;;
19004;SDS011;9635;52.078;8.648;2023-05-15T08:32:01;14.20;;;12.73;;
19004;SDS011;9635;52.078;8.648;2023-05-15T08:37:05;16.02;;;14.43;;
19004;SDS011;9635;52.078;8.648;2023-05-15T08:42:10;16.13;;;14.48;;
19004;SDS011;9635;52.078;8.648;2023-05-15T08:47:20;16.98;;;14.73;;
19004;SDS011;9635;52.078;8.648;2023-05-15T08:52:25;19.23;;;15.65;;
19004;SDS011;9635;52.078;8.648;2023-05-15T08:57:29;18.20;;;16.45;;
19004;SDS011;9635;52.078;8.648;2023-05-15T09:02:34;22.52;;;16.98;;
19004;SDS011;9635;52.078;8.648;2023-05-15T09:07:39;19.23;;;17.23;;
19004;SDS011;9635;52.078;8.648;2023-05-15T09:12:43;19.10;;;17.10;;
19004;SDS011;9635;52.078;8.648;2023-05-15T09:17:46;19.67;;;17.55;;
19004;SDS011;9635;52.078;8.648;2023-05-15T09:22:51;19.20;;;17.23;;
19004;SDS011;9635;52.078;8.648;2023-05-15T09:27:54;20.77;;;18.58;;
19004;SDS011;9635;52.078;8.648;2023-05-15T09:32:58;20.98;;;18.00;;
19004;SDS011;9635;52.078;8.648;2023-05-15T09:38:07;21.52;;;19.33;;
19004;SDS011;9635;52.078;8.648;2023-05-15T09:43:11;20.13;;;17.13;;
19004;SDS011;9635;52.078;8.648;2023-05-15T09:48:14;24.42;;;18.63;;
19004;SDS011;9635;52.078;8.648;2023-05-15T09:53:19;22.48;;;20.08;;
19004;SDS011;9635;52.078;8.648;2023-05-15T09:58:23;27.77;;;21.48;;
19004;SDS011;9635;52.078;8.648;2023-05-15T10:03:25;21.85;;;19.50;;
19004;SDS011;9635;52.078;8.648;2023-05-15T10:08:30;15.65;;;13.85;;
19004;SDS011;9635;52.078;8.648;2023-05-15T10:13:34;18.15;;;11.52;;
19004;SDS011;9635;52.078;8.648;2023-05-15T10:18:38;16.83;;;12.90;;
19004;SDS011;9635;52.078;8.648;2023-05-15T10:23:44;39.80;;;22.05;;
19004;SDS011;9635;52.078;8.648;2023-05-15T10:28:47;30.63;;;19.70;;
19004;SDS011;9635;52.078;8.648;2023-05-15T10:33:51;14.88;;;12.57;;
19004;SDS011;9635;52.078;8.648;2023-05-15T10:38:58;16.33;;;12.38;;
19004;SDS011;9635;52.078;8.648;2023-05-15T10:44:02;15.57;;;13.20;;
19004;SDS011;9635;52.078;8.648;2023-05-15T10:49:05;19.15;;;13.20;;
19004;SDS011;9635;52.078;8.648;2023-05-15T10:54:09;19.90;;;13.55;;
19004;SDS011;9635;52.078;8.648;2023-05-15T10:59:12;14.50;;;10.85;;
19004;SDS011;9635;52.078;8.648;2023-05-15T11:04:16;12.30;;;11.00;;
19004;SDS011;9635;52.078;8.648;2023-05-15T11:09:34;14.68;;;10.68;;
19004;SDS011;9635;52.078;8.648;2023-05-15T11:14:38;12.35;;;9.70;;
19004;SDS011;9635;52.078;8.648;2023-05-15T11:19:54;14.60;;;12.23;;
19004;SDS011;9635;52.078;8.648;2023-05-15T11:25:00;19.92;;;15.95;;
19004;SDS011;9635;52.078;8.648;2023-05-15T11:30:06;23.00;;;20.00;;
19004;SDS011;9635;52.078;8.648;2023-05-15T11:35:17;25.15;;;21.25;;
19004;SDS011;9635;52.078;8.648;2023-05-15T11:40:23;31.90;;;24.65;;
19004;SDS011;9635;52.078;8.648;2023-05-15T11:45:28;29.67;;;23.58;;
19004;SDS011;9635;52.078;8.648;2023-05-15T11:50:32;30.73;;;23.40;;
19004;SDS011;9635;52.078;8.648;2023-05-15T11:55:38;33.67;;;22.65;;
19004;SDS011;9635;52.078;8.648;2023-05-15T12:00:44;20.27;;;13.93;;
19004;SDS011;9635;52.078;8.648;2023-05-15T12:05:48;22.15;;;18.15;;
19004;SDS011;9635;52.078;8.648;2023-05-15T12:11:02;21.17;;;17.95;;
19004;SDS011;9635;52.078;8.648;2023-05-15T12:16:05;23.95;;;19.95;;
19004;SDS011;9635;52.078;8.648;2023-05-15T12:21:09;26.23;;;20.00;;
19004;SDS011;9635;52.078;8.648;2023-05-15T12:26:13;20.88;;;16.88;;
19004;SDS011;9635;52.078;8.648;2023-05-15T12:31:19;24.45;;;18.35;;
19004;SDS011;9635;52.078;8.648;2023-05-15T12:36:22;21.52;;;17.50;;
19004;SDS011;9635;52.078;8.648;2023-05-15T12:41:27;19.02;;;15.93;;
19004;SDS011;9635;52.078;8.648;2023-05-15T12:46:30;19.35;;;15.77;;
19004;SDS011;9635;52.078;8.648;2023-05-15T12:51:33;20.77;;;15.63;;
19004;SDS011;9635;52.078;8.648;2023-05-15T12:56:45;18.38;;;13.80;;
19004;SDS011;9635;52.078;8.648;2023-05-15T13:01:49;14.55;;;10.80;;
19004;SDS011;9635;52.078;8.648;2023-05-15T13:06:52;12.40;;;10.25;;
19004;SDS011;9635;52.078;8.648;2023-05-15T13:11:56;11.73;;;10.52;;
19004;SDS011;9635;52.078;8.648;2023-05-15T13:16:59;13.02;;;9.00;;
19004;SDS011;9635;52.078;8.648;2023-05-15T13:22:04;13.50;;;11.70;;
19004;SDS011;9635;52.078;8.648;2023-05-15T13:27:08;13.45;;;12.05;;
19004;SDS011;9635;52.078;8.648;2023-05-15T13:32:11;13.00;;;10.65;;
19004;SDS011;9635;52.078;8.648;2023-05-15T13:37:14;14.02;;;9.40;;
19004;SDS011;9635;52.078;8.648;2023-05-15T13:42:18;11.80;;;10.20;;
19004;SDS011;9635;52.078;8.648;2023-05-15T13:47:21;10.15;;;8.88;;
19004;SDS011;9635;52.078;8.648;2023-05-15T13:52:24;12.57;;;10.68;;
19004;SDS011;9635;52.078;8.648;2023-05-15T13:57:28;11.70;;;9.65;;
19004;SDS011;9635;52.078;8.648;2023-05-15T14:02:31;13.18;;;9.13;;
19004;SDS011;9635;52.078;8.648;2023-05-15T14:07:34;11.80;;;8.80;;
19004;SDS011;9635;52.078;8.648;2023-05-15T14:12:38;12.43;;;10.60;;
19004;SDS011;9635;52.078;8.648;2023-05-15T14:17:42;10.68;;;9.57;;
19004;SDS011;9635;52.078;8.648;2023-05-15T14:22:47;13.65;;;10.68;;
19004;SDS011;9635;52.078;8.648;2023-05-15T14:27:51;15.52;;;12.35;;
19004;SDS011;9635;52.078;8.648;2023-05-15T14:32:54;16.08;;;10.82;;
19004;SDS011;9635;52.078;8.648;2023-05-15T14:37:56;15.57;;;11.90;;
19004;SDS011;9635;52.078;8.648;2023-05-15T14:43:01;15.32;;;12.27;;
19004;SDS011;9635;52.078;8.648;2023-05-15T14:48:03;17.33;;;12.88;;
19004;SDS011;9635;52.078;8.648;2023-05-15T14:53:07;19.08;;;12.40;;
19004;SDS011;9635;52.078;8.648;2023-05-15T14:58:11;8.27;;;7.43;;
19004;SDS011;9635;52.078;8.648;2023-05-15T15:03:14;7.22;;;5.57;;
19004;SDS011;9635;52.078;8.648;2023-05-15T15:08:19;7.88;;;7.07;;
19004;SDS011;9635;52.078;8.648;2023-05-15T15:13:23;10.30;;;9.10;;
19004;SDS011;9635;52.078;8.648;2023-05-15T15:18:27;9.20;;;8.27;;
19004;SDS011;9635;52.078;8.648;2023-05-15T15:23:30;11.32;;;9.82;;
19004;SDS011;9635;52.078;8.648;2023-05-15T15:28:34;12.95;;;9.95;;
19004;SDS011;9635;52.078;8.648;2023-05-15T15:33:37;14.35;;;12.07;;
19004;SDS011;9635;52.078;8.648;2023-05-15T15:38:40;14.85;;;11.25;;
19004;SDS011;9635;52.078;8.648;2023-05-15T15:43:45;13.38;;;11.38;;
19004;SDS011;9635;52.078;8.648;2023-05-15T15:48:48;8.07;;;7.38;;
19004;SDS011;9635;52.078;8.648;2023-05-15T15:53:51;7.55;;;6.25;;
19004;SDS011;9635;52.078;8.648;2023-05-15T15:58:55;7.53;;;6.82;;
19004;SDS011;9635;52.078;8.648;2023-05-15T16:03:58;10.57;;;7.40;;
19004;SDS011;9635;52.078;8.648;2023-05-15T16:09:01;12.23;;;8.13;;
19004;SDS011;9635;52.078;8.648;2023-05-15T16:14:06;11.13;;;9.60;;
19004;SDS011;9635;52.078;8.648;2023-05-15T16:19:09;10.05;;;9.02;;
19004;SDS011;9635;52.078;8.648;2023-05-15T16:24:12;9.82;;;8.85;;
19004;SDS011;9635;52.078;8.648;2023-05-15T16:29:16;12.00;;;8.93;;
19004;SDS011;9635;52.078;8.648;2023-05-15T16:34:19;10.88;;;9.63;;
19004;SDS011;9635;52.078;8.648;2023-05-15T16:39:23;9.23;;;8.32;;
19004;SDS011;9635;52.078;8.648;2023-05-15T16:44:28;12.77;;;8.57;;
19004;SDS011;9635;52.078;8.648;2023-05-15T16:49:31;8.32;;;7.60;;
19004;SDS011;9635;52.078;8.648;2023-05-15T16:54:34;8.50;;;7.60;;
19004;SDS011;9635;52.078;8.648;2023-05-15T16:59:38;9.30;;;8.40;;
19004;SDS011;9635;52.078;8.648;2023-05-15T17:04:41;11.65;;;8.15;;
19004;SDS011;9635;52.078;8.648;2023-05-15T17:09:44;8.68;;;7.57;;
19004;SDS011;9635;52.078;8.648;2023-05-15T17:14:48;9.32;;;7.65;;
19004;SDS011;9635;52.078;8.648;2023-05-15T17:19:51;11.88;;;7.78;;
19004;SDS011;9635;52.078;8.648;2023-05-15T17:24:54;8.30;;;7.47;;
19004;SDS011;9635;52.078;8.648;2023-05-15T17:29:58;10.48;;;7.63;;
19004;SDS011;9635;52.078;8.648;2023-05-15T17:35:01;8.25;;;7.50;;
19004;SDS011;9635;52.078;8.648;2023-05-15T17:40:04;9.30;;;8.30;;
19004;SDS011;9635;52.078;8.648;2023-05-15T17:45:10;9.70;;;8.02;;
19004;SDS011;9635;52.078;8.648;2023-05-15T17:50:13;12.93;;;8.75;;
19004;SDS011;9635;52.078;8.648;2023-05-15T17:55:16;11.82;;;9.10;;
19004;SDS011;9635;52.078;8.648;2023-05-15T18:00:21;12.45;;;9.05;;
19004;SDS011;9635;52.078;8.648;2023-05-15T18:05:24;12.32;;;11.02;;
19004;SDS011;9635;52.078;8.648;2023-05-15T18:10:28;10.15;;;9.05;;
19004;SDS011;9635;52.078;8.648;2023-05-15T18:15:32;14.90;;;10.85;;
19004;SDS011;9635;52.078;8.648;2023-05-15T18:20:36;12.70;;;9.95;;
19004;SDS011;9635;52.078;8.648;2023-05-15T18:25:39;13.55;;;9.48;;
19004;SDS011;9635;52.078;8.648;2023-05-15T18:30:44;14.50;;;10.43;;
19004;SDS011;9635;52.078;8.648;2023-05-15T18:35:47;12.70;;;11.38;;
19004;SDS011;9635;52.078;8.648;2023-05-15T18:40:50;11.10;;;9.98;;
19004;SDS011;9635;52.078;8.648;2023-05-15T18:45:54;9.30;;;8.40;;
19004;SDS011;9635;52.078;8.648;2023-05-15T18:50:57;9.23;;;6.53;;
19004;SDS011;9635;52.078;8.648;2023-05-15T18:56:00;6.18;;;4.78;;
19004;SDS011;9635;52.078;8.648;2023-05-15T19:01:05;6.10;;;4.97;;
19004;SDS011;9635;52.078;8.648;2023-05-15T19:06:07;11.80;;;9.48;;
19004;SDS011;9635;52.078;8.648;2023-05-15T19:11:11;10.20;;;8.18;;
19004;SDS011;9635;52.078;8.648;2023-05-15T19:16:15;12.40;;;9.35;;
19004;SDS011;9635;52.078;8.648;2023-05-15T19:21:18;14.13;;;9.90;;
19004;SDS011;9635;52.078;8.648;2023-05-15T19:26:22;26.27;;;13.38;;
19004;SDS011;9635;52.078;8.648;2023-05-15T19:31:26;19.75;;;13.15;;
19004;SDS011;9635;52.078;8.648;2023-05-15T19:36:32;19.27;;;13.35;;
19004;SDS011;9635;52.078;8.648;2023-05-15T19:41:35;17.05;;;13.07;;
19004;SDS011;9635;52.078;8.648;2023-05-15T19:46:39;21.55;;;15.65;;
19004;SDS011;9635;52.078;8.648;2023-05-15T19:51:42;15.70;;;12.65;;
19004;SDS011;9635;52.078;8.648;2023-05-15T19:56:45;15.73;;;12.73;;
19004;SDS011;9635;52.078;8.648;2023-05-15T20:01:49;16.30;;;13.38;;
19004;SDS011;9635;52.078;8.648;2023-05-15T20:06:52;17.85;;;13.13;;
19004;SDS011;9635;52.078;8.648;2023-05-15T20:11:55;18.08;;;12.27;;
19004;SDS011;9635;52.078;8.648;2023-05-15T20:16:59;14.70;;;11.85;;
19004;SDS011;9635;52.078;8.648;2023-05-15T20:22:02;16.08;;;11.75;;
19004;SDS011;9635;52.078;8.648;2023-05-15T20:27:04;17.27;;;12.35;;
19004;SDS011;9635;52.078;8.648;2023-05-15T20:32:09;14.32;;;11.50;;
19004;SDS011;9635;52.078;8.648;2023-05-15T20:37:11;16.67;;;11.70;;
19004;SDS011;9635;52.078;8.648;2023-05-15T20:42:14;15.40;;;12.63;;
19004;SDS011;9635;52.078;8.648;2023-05-15T20:47:18;16.73;;;12.95;;
19004;SDS011;9635;52.078;8.648;2023-05-15T20:52:21;15.30;;;12.30;;
19004;SDS011;9635;52.078;8.648;2023-05-15T20:57:24;16.02;;;12.52;;
19004;SDS011;9635;52.078;8.648;2023-05-15T21:02:29;18.30;;;11.82;;
19004;SDS011;9635;52.078;8.648;2023-05-15T21:07:31;17.38;;;13.00;;
19004;SDS011;9635;52.078;8.648;2023-05-15T21:12:34;16.92;;;13.57;;
19004;SDS011;9635;52.078;8.648;2023-05-15T21:17:38;15.57;;;13.15;;
19004;SDS011;9635;52.078;8.648;2023-05-15T21:22:41;17.85;;;13.45;;
19004;SDS011;9635;52.078;8.648;2023-05-15T21:27:44;20.75;;;12.77;;
19004;SDS011;9635;52.078;8.648;2023-05-15T21:32:48;17.15;;;12.43;;
19004;SDS011;9635;52.078;8.648;2023-05-15T21:37:51;16.92;;;12.65;;
19004;SDS011;9635;52.078;8.648;2023-05-15T21:42:54;15.77;;;11.60;;
19004;SDS011;9635;52.078;8.648;2023-05-15T21:47:58;17.63;;;14.02;;
19004;SDS011;9635;52.078;8.648;2023-05-15T21:53:01;20.77;;;12.90;;
19004;SDS011;9635;52.078;8.648;2023-05-15T21:58:04;17.73;;;14.45;;
19004;SDS011;9635;52.078;8.648;2023-05-15T22:03:08;23.33;;;13.93;;
19004;SDS011;9635;52.078;8.648;2023-05-15T22:08:11;20.80;;;14.80;;
19004;SDS011;9635;52.078;8.648;2023-05-15T22:13:14;17.33;;;14.18;;
19004;SDS011;9635;52.078;8.648;2023-05-15T22:18:18;20.98;;;15.55;;
19004;SDS011;9635;52.078;8.648;2023-05-15T22:23:21;20.02;;;15.30;;
19004;SDS011;9635;52.078;8.648;2023-05-15T22:28:24;19.98;;;14.35;;
19004;SDS011;9635;52.078;8.648;2023-05-15T22:33:28;27.33;;;15.23;;
19004;SDS011;9635;52.078;8.648;2023-05-15T22:38:31;20.73;;;15.48;;
19004;SDS011;9635;52.078;8.648;2023-05-15T22:43:34;21.00;;;14.57;;
19004;SDS011;9635;52.078;8.648;2023-05-15T22:48:38;22.80;;;14.10;;
19004;SDS011;9635;52.078;8.648;2023-05-15T22:53:41;20.30;;;14.02;;
19004;SDS011;9635;52.078;8.648;2023-05-15T22:58:44;20.40;;;13.27;;
19004;SDS011;9635;52.078;8.648;2023-05-15T23:03:49;19.30;;;13.23;;
19004;SDS011;9635;52.078;8.648;2023-05-15T23:08:52;20.70;;;12.90;;
19004;SDS011;9635;52.078;8.648;2023-05-15T23:13:55;18.17;;;12.30;;
19004;SDS011;9635;52.078;8.648;2023-05-15T23:19:00;23.17;;;14.38;;
19004;SDS011;9635;52.078;8.648;2023-05-15T23:24:03;23.63;;;14.75;;
19004;SDS011;9635;52.078;8.648;2023-05-15T23:29:06;25.42;;;14.45;;
19004;SDS011;9635;52.078;8.648;2023-05-15T23:34:11;18.13;;;12.18;;
19004;SDS011;9635;52.078;8.648;2023-05-15T23:39:13;19.85;;;11.93;;
19004;SDS011;9635;52.078;8.648;2023-05-15T23:44:16;17.98;;;11.90;;
19004;SDS011;9635;52.078;8.648;2023-05-15T23:49:21;20.30;;;12.63;;
19004;SDS011;9635;52.078;8.648;2023-05-15T23:54:23;17.33;;;11.85;;
19004;SDS011;9635;52.078;8.648;2023-05-15T23:59:26;18.75;;;12.93;;
